Time;durP1;ratioP1;P1;durP2;ratioP2;P2;SDS_P1;SDS_P2;PMS_P1;PMS_P2;Temp;Humidity;BMP_temperature;BMP_pressure;BME280_temperature;BME280_humidity;BME280_pressure;Samples;Min_cycle;Max_cycle;Signal;HPM_P1;HPM_P2
2022/07/31 00:01:30;;;;;;;;;3.25;1.25;;;;;;;;5074246;28;45381;-62
2022/07/31 00:03:55;;;;;;;;;2.00;1.00;;;;;;;;5074245;28;45731;-62
2022/07/31 00:06:20;;;;;;;;;1.25;0.50;;;;;;;;5074371;28;45555;-63
2022/07/31 00:08:47;;;;;;;;;1.00;1.00;;;;;;;;5074419;28;45430;-63
2022/07/31 00:11:12;;;;;;;;;1.50;1.00;;;;;;;;5074409;28;45377;-63
2022/07/31 00:13:38;;;;;;;;;0.00;0.00;;;;;;;;5073959;28;46292;-63
2022/07/31 00:16:03;;;;;;;;;0.00;0.00;;;;;;;;5074179;28;45436;-63
2022/07/31 00:18:28;;;;;;;;;1.00;0.25;;;;;;;;5074158;27;45648;-63
2022/07/31 00:20:53;;;;;;;;;1.00;1.00;;;;;;;;5074174;28;45424;-63
2022/07/31 00:23:19;;;;;;;;;1.00;1.00;;;;;;;;5073919;28;46606;-63
2022/07/31 00:25:44;;;;;;;;;0.50;0.00;;;;;;;;5055748;28;45552;-63
2022/07/31 00:28:09;;;;;;;;;1.00;0.00;;;;;;;;5074186;28;45480;-64
2022/07/31 00:30:34;;;;;;;;;1.00;1.00;;;;;;;;5074049;28;45442;-62
2022/07/31 00:32:59;;;;;;;;;2.25;1.00;;;;;;;;5073984;28;46338;-63
2022/07/31 00:35:25;;;;;;;;;1.50;0.00;;;;;;;;5074070;28;45236;-63
2022/07/31 00:37:50;;;;;;;;;0.00;0.00;;;;;;;;5074145;28;45312;-62
2022/07/31 00:40:16;;;;;;;;;0.00;0.00;;;;;;;;5073825;28;45322;-63
2022/07/31 00:42:41;;;;;;;;;0.00;0.00;;;;;;;;5073660;28;46476;-63
2022/07/31 00:45:08;;;;;;;;;0.00;0.00;;;;;;;;5073670;28;45462;-63
2022/07/31 00:47:33;;;;;;;;;1.00;1.00;;;;;;;;5055511;27;45441;-62
2022/07/31 00:49:58;;;;;;;;;0.00;0.00;;;;;;;;5073747;28;45408;-63
2022/07/31 00:52:24;;;;;;;;;0.00;0.00;;;;;;;;5055434;28;46334;-62
2022/07/31 00:54:49;;;;;;;;;2.25;1.00;;;;;;;;5072757;28;45451;-64
2022/07/31 00:57:14;;;;;;;;;0.00;0.00;;;;;;;;5055536;28;45441;-63
2022/07/31 00:59:40;;;;;;;;;1.00;1.00;;;;;;;;5073585;28;45389;-63
2022/07/31 01:02:07;;;;;;;;;0.50;0.50;;;;;;;;5073457;28;46909;-63
2022/07/31 01:04:32;;;;;;;;;1.00;1.00;;;;;;;;5073478;28;45455;-62
2022/07/31 01:06:59;;;;;;;;;0.00;0.00;;;;;;;;5073526;28;45392;-63
2022/07/31 01:09:24;;;;;;;;;0.00;0.00;;;;;;;;5073636;28;45376;-62
2022/07/31 01:11:56;;;;;;;;;1.00;1.00;;;;;;;;5073332;28;45739;-62
2022/07/31 01:14:24;;;;;;;;;1.00;1.00;;;;;;;;5073702;28;45318;-62
2022/07/31 01:16:51;;;;;;;;;1.25;1.00;;;;;;;;5073259;28;45425;-62
2022/07/31 01:19:30;;;;;;;;;0.75;0.75;;;;;;;;5073648;28;45432;-62
2022/07/31 01:22:07;;;;;;;;;2.00;2.00;;;;;;;;5073080;28;45355;-63
2022/07/31 01:24:42;;;;;;;;;3.00;2.25;;;;;;;;5073031;28;45381;-62
2022/07/31 01:27:21;;;;;;;;;3.00;3.00;;;;;;;;5073160;28;45354;-63
2022/07/31 01:29:48;;;;;;;;;3.75;3.00;;;;;;;;5073191;28;45404;-63
2022/07/31 01:32:17;;;;;;;;;3.00;3.00;;;;;;;;5073002;28;46709;-63
2022/07/31 01:34:48;;;;;;;;;2.00;2.00;;;;;;;;5055109;28;45692;-62
2022/07/31 01:37:28;;;;;;;;;3.75;3.75;;;;;;;;5073167;28;45498;-62
2022/07/31 01:39:58;;;;;;;;;5.00;5.00;;;;;;;;5073144;28;45321;-63
2022/07/31 01:42:25;;;;;;;;;1.50;1.50;;;;;;;;5072602;28;45442;-63
2022/07/31 01:44:53;;;;;;;;;3.00;3.00;;;;;;;;5072963;28;45954;-63
2022/07/31 01:47:20;;;;;;;;;3.75;3.75;;;;;;;;5072913;28;45402;-63
2022/07/31 01:49:47;;;;;;;;;1.50;1.50;;;;;;;;5073279;28;45705;-63
2022/07/31 01:52:14;;;;;;;;;3.50;2.50;;;;;;;;5072790;28;45772;-63
2022/07/31 01:54:39;;;;;;;;;4.00;2.75;;;;;;;;5054510;28;45520;-63
2022/07/31 01:57:06;;;;;;;;;3.00;3.00;;;;;;;;5073258;28;45434;-63
2022/07/31 01:59:33;;;;;;;;;2.50;2.50;;;;;;;;5072988;28;45380;-62
2022/07/31 02:01:59;;;;;;;;;2.75;2.75;;;;;;;;5072764;28;46112;-63
2022/07/31 02:04:24;;;;;;;;;4.00;2.00;;;;;;;;5072702;28;45435;-63
2022/07/31 02:06:51;;;;;;;;;5.00;4.00;;;;;;;;5072495;28;45342;-63
2022/07/31 02:09:18;;;;;;;;;3.25;3.00;;;;;;;;5072967;28;45393;-62
2022/07/31 02:11:44;;;;;;;;;4.00;4.00;;;;;;;;5072592;28;45496;-62
2022/07/31 02:14:09;;;;;;;;;2.75;2.75;;;;;;;;5072710;28;45456;-63
2022/07/31 02:16:36;;;;;;;;;3.50;2.25;;;;;;;;5072750;28;45424;-63
2022/07/31 02:19:02;;;;;;;;;2.50;2.50;;;;;;;;5072669;28;45425;-64
2022/07/31 02:21:27;;;;;;;;;2.50;2.25;;;;;;;;5054158;28;47547;-63
2022/07/31 02:23:53;;;;;;;;;3.00;2.00;;;;;;;;5072648;27;45408;-63
2022/07/31 02:26:19;;;;;;;;;2.00;2.00;;;;;;;;5072711;28;45472;-64
2022/07/31 02:28:45;;;;;;;;;2.25;1.00;;;;;;;;5054688;27;45492;-63
2022/07/31 02:31:11;;;;;;;;;1.50;1.50;;;;;;;;5072467;28;46446;-63
2022/07/31 02:33:37;;;;;;;;;1.25;1.25;;;;;;;;5072315;28;45397;-63
2022/07/31 02:36:03;;;;;;;;;2.00;2.00;;;;;;;;5072432;28;45423;-62
2022/07/31 02:38:29;;;;;;;;;1.75;0.00;;;;;;;;5054252;28;45482;-63
2022/07/31 02:40:58;;;;;;;;;1.00;1.00;;;;;;;;5072199;28;46379;-63
2022/07/31 02:43:24;;;;;;;;;1.50;1.25;;;;;;;;5072203;28;45335;-62
2022/07/31 02:45:49;;;;;;;;;1.00;1.00;;;;;;;;5072405;28;45284;-63
2022/07/31 02:48:15;;;;;;;;;0.75;0.75;;;;;;;;5072015;28;45350;-63
2022/07/31 02:50:40;;;;;;;;;1.00;1.00;;;;;;;;5072058;28;46090;-62
2022/07/31 02:53:06;;;;;;;;;1.50;1.50;;;;;;;;5072240;28;45414;-63
2022/07/31 02:55:32;;;;;;;;;1.00;1.00;;;;;;;;5054326;27;45386;-63
2022/07/31 02:57:57;;;;;;;;;1.75;1.00;;;;;;;;5053925;28;45534;-63
2022/07/31 03:00:25;;;;;;;;;1.00;1.00;;;;;;;;5053436;28;46161;-63
2022/07/31 03:02:51;;;;;;;;;1.00;1.00;;;;;;;;5071994;28;45408;-62
2022/07/31 03:05:16;;;;;;;;;1.75;1.00;;;;;;;;5072055;28;45419;-61
2022/07/31 03:07:42;;;;;;;;;0.75;0.75;;;;;;;;5053876;28;45539;-62
2022/07/31 03:10:09;;;;;;;;;0.50;0.50;;;;;;;;5071770;28;45333;-63
2022/07/31 03:12:35;;;;;;;;;2.00;2.00;;;;;;;;5071755;28;45401;-63
2022/07/31 03:15:00;;;;;;;;;2.00;2.00;;;;;;;;5072104;28;45650;-63
2022/07/31 03:17:26;;;;;;;;;1.25;1.25;;;;;;;;5071883;28;45433;-63
2022/07/31 03:19:52;;;;;;;;;2.00;2.00;;;;;;;;5074185;28;46631;-63
2022/07/31 03:22:17;;;;;;;;;2.50;2.50;;;;;;;;5074806;28;45377;-63
2022/07/31 03:24:43;;;;;;;;;2.75;2.75;;;;;;;;5074795;28;45581;-63
2022/07/31 03:27:08;;;;;;;;;1.00;1.00;;;;;;;;5074550;28;45523;-63
2022/07/31 03:29:39;;;;;;;;;2.25;2.25;;;;;;;;5074547;28;46499;-63
2022/07/31 03:32:05;;;;;;;;;3.00;2.00;;;;;;;;5074674;28;45326;-63
2022/07/31 03:34:30;;;;;;;;;5.25;5.25;;;;;;;;5056684;27;45501;-63
2022/07/31 03:36:56;;;;;;;;;5.00;5.00;;;;;;;;5074670;28;45460;-62
2022/07/31 03:39:21;;;;;;;;;6.00;5.00;;;;;;;;5074408;28;46342;-62
2022/07/31 03:41:47;;;;;;;;;6.00;5.25;;;;;;;;5074396;28;45341;-62
2022/07/31 03:44:12;;;;;;;;;7.25;7.25;;;;;;;;5074716;27;45397;-62
2022/07/31 03:46:37;;;;;;;;;5.00;5.00;;;;;;;;5056382;28;45399;-62
2022/07/31 03:49:03;;;;;;;;;7.00;6.00;;;;;;;;5074232;28;45519;-62
2022/07/31 03:51:29;;;;;;;;;11.25;8.00;;;;;;;;5074402;28;45400;-62
2022/07/31 03:53:54;;;;;;;;;5.00;5.00;;;;;;;;5074650;28;45696;-62
2022/07/31 03:56:20;;;;;;;;;6.50;6.50;;;;;;;;5074493;28;45374;-62
2022/07/31 03:58:45;;;;;;;;;7.00;7.00;;;;;;;;5074309;28;45643;-63
2022/07/31 04:01:11;;;;;;;;;8.25;6.00;;;;;;;;5074253;28;45350;-63
2022/07/31 04:03:37;;;;;;;;;7.00;7.00;;;;;;;;5074540;28;45507;-62
2022/07/31 04:06:02;;;;;;;;;7.75;7.75;;;;;;;;5074534;28;45444;-62
2022/07/31 04:08:27;;;;;;;;;6.75;6.75;;;;;;;;5074282;28;46311;-61
2022/07/31 04:10:52;;;;;;;;;7.75;7.75;;;;;;;;5074200;28;45438;-62
2022/07/31 04:13:18;;;;;;;;;7.25;6.00;;;;;;;;5074117;28;45710;-63
2022/07/31 04:15:43;;;;;;;;;4.25;3.00;;;;;;;;5074283;28;45266;-62
2022/07/31 04:18:08;;;;;;;;;5.00;5.00;;;;;;;;5073988;28;45440;-62
2022/07/31 04:20:33;;;;;;;;;5.25;5.25;;;;;;;;5074030;28;45476;-61
2022/07/31 04:22:58;;;;;;;;;4.00;4.00;;;;;;;;5074131;28;45354;-61
2022/07/31 04:25:24;;;;;;;;;4.00;3.00;;;;;;;;5074093;28;45391;-61
2022/07/31 04:27:49;;;;;;;;;3.00;3.00;;;;;;;;5073749;28;46310;-62
2022/07/31 04:30:14;;;;;;;;;3.00;3.00;;;;;;;;5073842;28;45428;-63
2022/07/31 04:32:40;;;;;;;;;4.00;4.00;;;;;;;;5074135;28;45422;-63
2022/07/31 04:35:06;;;;;;;;;5.00;4.00;;;;;;;;5074092;28;45431;-62
2022/07/31 04:37:31;;;;;;;;;6.75;5.00;;;;;;;;5073564;28;46728;-62
2022/07/31 04:39:57;;;;;;;;;5.00;4.00;;;;;;;;5073913;28;45371;-62
2022/07/31 04:42:22;;;;;;;;;5.00;5.00;;;;;;;;5073636;28;45696;-62
2022/07/31 04:44:47;;;;;;;;;4.25;4.25;;;;;;;;5074026;28;45374;-62
2022/07/31 04:47:13;;;;;;;;;4.00;4.00;;;;;;;;5055432;28;47383;-62
2022/07/31 04:49:38;;;;;;;;;3.50;3.50;;;;;;;;5073681;28;45417;-62
2022/07/31 04:52:03;;;;;;;;;5.00;4.00;;;;;;;;5073694;28;45387;-63
2022/07/31 04:54:28;;;;;;;;;4.00;4.00;;;;;;;;5073782;28;45494;-62
2022/07/31 04:56:54;;;;;;;;;4.00;4.00;;;;;;;;5055328;28;46471;-62
2022/07/31 04:59:20;;;;;;;;;3.00;3.00;;;;;;;;5073594;28;45425;-61
2022/07/31 05:01:46;;;;;;;;;5.25;2.75;;;;;;;;5073535;28;45472;-62
2022/07/31 05:04:11;;;;;;;;;2.00;2.00;;;;;;;;5073626;28;45501;-62
2022/07/31 05:06:41;;;;;;;;;3.00;3.00;;;;;;;;5073301;28;47736;-62
2022/07/31 05:09:08;;;;;;;;;3.00;3.00;;;;;;;;5073637;28;45388;-62
2022/07/31 05:11:34;;;;;;;;;3.75;3.75;;;;;;;;5073699;28;45480;-63
2022/07/31 05:14:01;;;;;;;;;1.25;1.25;;;;;;;;5073210;28;45512;-62
2022/07/31 05:16:27;;;;;;;;;5.00;5.00;;;;;;;;5073128;28;47494;-62
2022/07/31 05:18:52;;;;;;;;;4.00;4.00;;;;;;;;5073086;27;45455;-62
2022/07/31 05:21:18;;;;;;;;;3.25;3.25;;;;;;;;5054995;28;45402;-62
2022/07/31 05:23:44;;;;;;;;;4.00;4.00;;;;;;;;5073630;28;45493;-62
2022/07/31 05:26:10;;;;;;;;;3.00;3.00;;;;;;;;5073044;28;46363;-62
2022/07/31 05:28:36;;;;;;;;;3.25;3.25;;;;;;;;5073411;28;45407;-62
2022/07/31 05:31:01;;;;;;;;;6.25;4.50;;;;;;;;5055311;27;45672;-62
2022/07/31 05:33:27;;;;;;;;;3.75;3.75;;;;;;;;5054952;28;45648;-62
2022/07/31 05:35:52;;;;;;;;;3.75;3.75;;;;;;;;5073339;28;45800;-62
2022/07/31 05:38:17;;;;;;;;;3.00;3.00;;;;;;;;5072960;28;45292;-63
2022/07/31 05:40:42;;;;;;;;;2.75;2.75;;;;;;;;5072919;28;45364;-62
2022/07/31 05:43:09;;;;;;;;;3.25;3.25;;;;;;;;5072974;28;45364;-62
2022/07/31 05:45:34;;;;;;;;;3.75;3.25;;;;;;;;5073161;28;45696;-62
2022/07/31 05:48:00;;;;;;;;;4.75;4.75;;;;;;;;5073191;28;45580;-62
2022/07/31 05:50:25;;;;;;;;;4.00;4.00;;;;;;;;5055061;28;45474;-62
2022/07/31 05:52:50;;;;;;;;;3.25;3.25;;;;;;;;5055015;28;45446;-62
2022/07/31 05:55:15;;;;;;;;;4.00;4.00;;;;;;;;5072878;28;46736;-63
2022/07/31 05:57:40;;;;;;;;;3.00;3.00;;;;;;;;5072925;28;45401;-63
2022/07/31 06:00:06;;;;;;;;;3.25;3.25;;;;;;;;5073213;28;45358;-61
2022/07/31 06:02:31;;;;;;;;;4.00;4.00;;;;;;;;5072760;28;45498;-63
2022/07/31 06:04:57;;;;;;;;;4.75;4.75;;;;;;;;5072768;28;46024;-62
2022/07/31 06:07:22;;;;;;;;;4.50;4.50;;;;;;;;5072749;28;45468;-62
2022/07/31 06:09:47;;;;;;;;;4.00;4.00;;;;;;;;5073008;28;45385;-61
2022/07/31 06:12:12;;;;;;;;;0.75;0.00;;;;;;;;5072879;28;45351;-62
2022/07/31 06:14:38;;;;;;;;;2.75;2.75;;;;;;;;5072588;28;46193;-61
2022/07/31 06:17:03;;;;;;;;;4.00;4.00;;;;;;;;5072560;27;45309;-62
2022/07/31 06:19:29;;;;;;;;;4.00;3.00;;;;;;;;5072785;28;45409;-61
2022/07/31 06:21:54;;;;;;;;;3.50;3.50;;;;;;;;5072694;28;45377;-62
2022/07/31 06:24:19;;;;;;;;;3.50;3.50;;;;;;;;5072451;28;45926;-61
2022/07/31 06:26:44;;;;;;;;;3.75;3.75;;;;;;;;5072345;28;45345;-61
2022/07/31 06:29:09;;;;;;;;;4.75;4.75;;;;;;;;5054612;28;45363;-61
2022/07/31 06:31:35;;;;;;;;;4.00;4.00;;;;;;;;5072534;28;45274;-62
2022/07/31 06:34:00;;;;;;;;;4.00;4.00;;;;;;;;5072282;28;46560;-63
2022/07/31 06:36:25;;;;;;;;;4.75;4.50;;;;;;;;5072411;28;45470;-63
2022/07/31 06:38:51;;;;;;;;;4.00;2.75;;;;;;;;5072574;28;45334;-62
2022/07/31 06:44:01;;;;;;;;;3.75;3.25;;;;;;;;5072073;28;45374;-62
2022/07/31 06:46:26;;;;;;;;;4.75;4.00;;;;;;;;5054046;28;45466;-62
2022/07/31 06:48:51;;;;;;;;;4.75;4.75;;;;;;;;5072278;28;45418;-62
2022/07/31 06:51:16;;;;;;;;;2.00;2.00;;;;;;;;5072613;28;45685;-62
2022/07/31 06:53:41;;;;;;;;;6.75;5.50;;;;;;;;5070929;28;46504;-61
2022/07/31 06:56:07;;;;;;;;;6.00;5.00;;;;;;;;5054100;28;45694;-62
2022/07/31 06:58:32;;;;;;;;;5.00;5.00;;;;;;;;5072327;28;45389;-62
2022/07/31 07:00:57;;;;;;;;;4.00;4.00;;;;;;;;5072071;28;45383;-62
2022/07/31 07:03:22;;;;;;;;;5.00;5.00;;;;;;;;5071920;28;46345;-62
2022/07/31 07:05:47;;;;;;;;;4.00;4.00;;;;;;;;5072060;28;45792;-62
2022/07/31 07:08:13;;;;;;;;;4.00;4.00;;;;;;;;5072109;28;45432;-62
2022/07/31 07:10:38;;;;;;;;;6.00;5.00;;;;;;;;5071916;28;45375;-62
2022/07/31 07:13:03;;;;;;;;;3.75;3.50;;;;;;;;5071829;28;46527;-62
2022/07/31 07:15:28;;;;;;;;;4.50;4.50;;;;;;;;5071770;28;45659;-63
2022/07/31 07:17:54;;;;;;;;;5.00;5.00;;;;;;;;5071785;27;45478;-63
2022/07/31 07:20:19;;;;;;;;;6.00;5.50;;;;;;;;5071853;28;45387;-63
2022/07/31 07:22:44;;;;;;;;;5.00;5.00;;;;;;;;5071604;28;45592;-62
2022/07/31 07:25:11;;;;;;;;;5.50;5.00;;;;;;;;5071654;28;45519;-62
2022/07/31 07:27:36;;;;;;;;;3.75;3.75;;;;;;;;5071787;28;45311;-63
2022/07/31 07:30:01;;;;;;;;;5.50;5.50;;;;;;;;5071652;28;45403;-63
2022/07/31 07:32:27;;;;;;;;;5.25;5.25;;;;;;;;5053384;27;47190;-63
2022/07/31 07:34:52;;;;;;;;;6.00;4.25;;;;;;;;5071762;28;45354;-62
2022/07/31 07:37:17;;;;;;;;;6.75;6.00;;;;;;;;5071833;28;45747;-62
2022/07/31 07:39:43;;;;;;;;;4.50;4.50;;;;;;;;5071550;28;45350;-62
2022/07/31 07:42:09;;;;;;;;;4.00;4.00;;;;;;;;5071025;28;45351;-62
2022/07/31 07:44:34;;;;;;;;;5.50;5.50;;;;;;;;5071203;28;45280;-62
2022/07/31 07:46:59;;;;;;;;;4.25;3.50;;;;;;;;5071545;28;45392;-62
2022/07/31 07:49:24;;;;;;;;;4.00;4.00;;;;;;;;5071321;28;45424;-62
2022/07/31 07:51:49;;;;;;;;;5.75;5.75;;;;;;;;5071316;28;46360;-62
2022/07/31 07:54:14;;;;;;;;;5.50;5.50;;;;;;;;5071394;28;45588;-62
2022/07/31 07:56:40;;;;;;;;;4.00;4.00;;;;;;;;5071280;28;45543;-62
2022/07/31 07:59:05;;;;;;;;;6.50;5.50;;;;;;;;5071754;28;45363;-62
2022/07/31 08:01:30;;;;;;;;;6.00;6.00;;;;;;;;5070872;28;45335;-62
2022/07/31 08:03:55;;;;;;;;;4.75;4.25;;;;;;;;5071258;28;45420;-62
2022/07/31 08:06:22;;;;;;;;;5.50;5.50;;;;;;;;5074465;28;45286;-61
2022/07/31 08:08:47;;;;;;;;;6.00;5.25;;;;;;;;5074209;28;45491;-62
2022/07/31 08:11:12;;;;;;;;;4.25;4.25;;;;;;;;5074010;28;46882;-62
2022/07/31 08:13:38;;;;;;;;;8.00;6.00;;;;;;;;5074047;28;45548;-61
2022/07/31 08:16:03;;;;;;;;;5.50;5.50;;;;;;;;5074347;28;45340;-62
2022/07/31 08:18:30;;;;;;;;;7.00;6.00;;;;;;;;5073916;27;45342;-62
2022/07/31 08:20:55;;;;;;;;;6.00;5.50;;;;;;;;5073943;28;45940;-63
2022/07/31 08:23:20;;;;;;;;;4.50;4.50;;;;;;;;5074076;28;45371;-62
2022/07/31 08:25:46;;;;;;;;;6.50;5.25;;;;;;;;5074041;28;45485;-62
2022/07/31 08:28:11;;;;;;;;;5.25;5.25;;;;;;;;5073970;28;45389;-62
2022/07/31 08:30:36;;;;;;;;;7.25;7.25;;;;;;;;5055701;28;48320;-62
2022/07/31 08:33:01;;;;;;;;;6.50;6.00;;;;;;;;5073910;28;45495;-62
2022/07/31 08:35:27;;;;;;;;;6.25;6.25;;;;;;;;5055789;28;45410;-62
2022/07/31 08:37:52;;;;;;;;;4.00;4.00;;;;;;;;5074112;28;45378;-63
2022/07/31 08:40:18;;;;;;;;;4.50;4.50;;;;;;;;5073661;28;46357;-62
2022/07/31 08:42:44;;;;;;;;;4.75;4.50;;;;;;;;5073682;28;45399;-62
2022/07/31 08:45:10;;;;;;;;;6.50;6.50;;;;;;;;5073860;28;45324;-62
2022/07/31 08:47:36;;;;;;;;;5.25;5.25;;;;;;;;5073731;28;45598;-62
2022/07/31 08:50:02;;;;;;;;;8.00;6.00;;;;;;;;5073512;28;46300;-63
2022/07/31 08:52:31;;;;;;;;;5.75;5.00;;;;;;;;5073628;28;45455;-62
2022/07/31 08:54:57;;;;;;;;;7.25;7.00;;;;;;;;5073708;28;45418;-62
2022/07/31 08:57:22;;;;;;;;;6.00;6.00;;;;;;;;5073561;28;45440;-62
2022/07/31 08:59:51;;;;;;;;;5.00;5.00;;;;;;;;5055231;28;48494;-62
2022/07/31 09:02:16;;;;;;;;;9.00;7.75;;;;;;;;5073532;28;45480;-61
2022/07/31 09:04:41;;;;;;;;;4.75;4.75;;;;;;;;5073492;28;45368;-61
2022/07/31 09:07:09;;;;;;;;;7.50;6.00;;;;;;;;5073617;28;45417;-62
2022/07/31 09:09:34;;;;;;;;;7.00;6.00;;;;;;;;5073547;28;46779;-62
2022/07/31 09:11:59;;;;;;;;;7.25;6.00;;;;;;;;5073210;28;45416;-61
2022/07/31 09:14:29;;;;;;;;;6.25;6.25;;;;;;;;5073571;28;45389;-62
2022/07/31 09:16:55;;;;;;;;;5.25;5.25;;;;;;;;5072399;28;45433;-61
2022/07/31 09:19:21;;;;;;;;;6.00;6.00;;;;;;;;5073164;28;45466;-61
2022/07/31 09:21:46;;;;;;;;;7.00;7.00;;;;;;;;5073332;28;45469;-62
2022/07/31 09:24:13;;;;;;;;;9.50;8.00;;;;;;;;5073328;28;46011;-62
2022/07/31 09:26:43;;;;;;;;;12.00;12.00;;;;;;;;5054906;28;45364;-61
2022/07/31 09:29:10;;;;;;;;;12.50;10.25;;;;;;;;5073088;28;46580;-62
2022/07/31 09:31:36;;;;;;;;;6.00;6.00;;;;;;;;5054916;28;45428;-63
2022/07/31 09:34:01;;;;;;;;;5.25;5.25;;;;;;;;5073266;28;45676;-62
2022/07/31 09:36:26;;;;;;;;;8.50;7.00;;;;;;;;5073385;28;45347;-62
2022/07/31 09:38:52;;;;;;;;;6.50;6.50;;;;;;;;5073059;28;46367;-61
2022/07/31 09:41:18;;;;;;;;;6.50;5.50;;;;;;;;5069996;28;45446;-64
2022/07/31 09:43:53;;;;;;;;;6.00;6.00;;;;;;;;5071793;28;45418;-61
2022/07/31 09:46:18;;;;;;;;;6.25;6.25;;;;;;;;5071305;28;45366;-62
2022/07/31 09:48:54;;;;;;;;;6.75;6.00;;;;;;;;5071825;28;45765;-62
2022/07/31 09:51:20;;;;;;;;;5.75;5.75;;;;;;;;5072170;28;45442;-62
2022/07/31 09:53:49;;;;;;;;;6.25;6.25;;;;;;;;5072829;28;45421;-63
2022/07/31 09:56:14;;;;;;;;;7.25;5.75;;;;;;;;5054790;28;45420;-63
2022/07/31 09:58:40;;;;;;;;;5.00;5.00;;;;;;;;5072526;28;45658;-64
2022/07/31 10:01:07;;;;;;;;;6.25;5.50;;;;;;;;5072681;28;45603;-64
2022/07/31 10:03:35;;;;;;;;;5.50;5.50;;;;;;;;5054717;27;45422;-63
2022/07/31 10:06:00;;;;;;;;;4.25;4.25;;;;;;;;5054445;27;45374;-63
2022/07/31 10:08:27;;;;;;;;;5.00;5.00;;;;;;;;5072544;28;46667;-61
2022/07/31 10:10:52;;;;;;;;;7.50;7.50;;;;;;;;5072635;28;45268;-62
2022/07/31 10:13:18;;;;;;;;;9.00;5.50;;;;;;;;5072535;28;45368;-62
2022/07/31 10:15:45;;;;;;;;;5.25;5.25;;;;;;;;5072688;28;45427;-61
2022/07/31 10:18:11;;;;;;;;;5.75;5.75;;;;;;;;5072123;28;45368;-61
2022/07/31 10:20:38;;;;;;;;;4.25;4.25;;;;;;;;5072434;28;45475;-61
2022/07/31 10:23:13;;;;;;;;;5.50;5.50;;;;;;;;5054465;28;45700;-62
2022/07/31 10:25:43;;;;;;;;;5.50;5.50;;;;;;;;5072305;28;45476;-62
2022/07/31 10:28:08;;;;;;;;;2.50;2.50;;;;;;;;5072039;28;46288;-62
2022/07/31 10:30:35;;;;;;;;;5.50;5.50;;;;;;;;5072478;28;45378;-62
2022/07/31 10:33:01;;;;;;;;;6.75;5.75;;;;;;;;5072500;28;45471;-62
2022/07/31 10:35:27;;;;;;;;;4.00;4.00;;;;;;;;5072352;28;45507;-62
2022/07/31 10:38:09;;;;;;;;;6.25;6.25;;;;;;;;5072164;28;46460;-62
2022/07/31 10:40:43;;;;;;;;;5.00;5.00;;;;;;;;5072204;28;45326;-62
2022/07/31 10:43:08;;;;;;;;;6.25;6.25;;;;;;;;5072246;28;45285;-62
2022/07/31 10:45:44;;;;;;;;;7.00;7.00;;;;;;;;5072283;28;45357;-62
2022/07/31 10:48:10;;;;;;;;;4.50;4.50;;;;;;;;5072154;28;46544;-62
2022/07/31 10:50:35;;;;;;;;;4.75;4.75;;;;;;;;5071998;28;45375;-62
2022/07/31 10:53:07;;;;;;;;;6.25;6.25;;;;;;;;5072204;28;45380;-62
2022/07/31 10:55:34;;;;;;;;;4.75;4.75;;;;;;;;5053943;28;45404;-62
2022/07/31 10:58:09;;;;;;;;;5.50;5.00;;;;;;;;5071989;28;45391;-63
2022/07/31 11:00:35;;;;;;;;;8.50;7.25;;;;;;;;5053597;28;45388;-62
2022/07/31 11:03:10;;;;;;;;;5.75;5.75;;;;;;;;5071900;28;45382;-63
2022/07/31 11:05:35;;;;;;;;;6.00;6.00;;;;;;;;5072145;28;45440;-62
2022/07/31 11:08:03;;;;;;;;;4.00;4.00;;;;;;;;5071712;28;46719;-61
2022/07/31 11:10:28;;;;;;;;;5.75;5.75;;;;;;;;5053463;28;45576;-62
2022/07/31 11:13:03;;;;;;;;;5.75;5.75;;;;;;;;5071598;28;45421;-62
2022/07/31 11:15:29;;;;;;;;;5.25;5.25;;;;;;;;5071647;28;45384;-61
2022/07/31 11:17:55;;;;;;;;;45.50;39.50;;;;;;;;5071294;27;45964;-61
2022/07/31 11:20:27;;;;;;;;;63.00;52.50;;;;;;;;5071450;28;45356;-62
2022/07/31 11:22:53;;;;;;;;;78.33;75.00;;;;;;;;5071532;28;45654;-61
2022/07/31 11:25:19;;;;;;;;;4.50;4.50;;;;;;;;5071570;28;45464;-62
2022/07/31 11:27:44;;;;;;;;;10.00;10.00;;;;;;;;5071257;28;45379;-61
2022/07/31 11:30:09;;;;;;;;;6.25;5.50;;;;;;;;5071464;28;45432;-62
2022/07/31 11:32:35;;;;;;;;;9.25;7.25;;;;;;;;5071492;28;45403;-63
2022/07/31 11:35:00;;;;;;;;;6.75;6.75;;;;;;;;5071479;28;45463;-62
2022/07/31 11:37:27;;;;;;;;;4.75;4.75;;;;;;;;5071278;28;45614;-61
2022/07/31 11:39:53;;;;;;;;;4.25;4.25;;;;;;;;5072560;28;45375;-62
2022/07/31 11:42:19;;;;;;;;;3.50;3.50;;;;;;;;5074404;28;45377;-62
2022/07/31 11:44:44;;;;;;;;;4.50;4.50;;;;;;;;5074350;28;45373;-61
2022/07/31 11:47:11;;;;;;;;;5.00;4.25;;;;;;;;5072654;28;46389;-61
2022/07/31 11:49:36;;;;;;;;;4.25;4.25;;;;;;;;5073702;28;45352;-61
2022/07/31 11:52:03;;;;;;;;;5.50;5.50;;;;;;;;5074309;28;45491;-62
2022/07/31 11:54:28;;;;;;;;;6.50;5.50;;;;;;;;5074438;28;45370;-62
2022/07/31 11:56:54;;;;;;;;;3.75;3.75;;;;;;;;5055843;28;47592;-62
2022/07/31 11:59:29;;;;;;;;;4.00;4.00;;;;;;;;5074183;28;45542;-62
2022/07/31 12:02:00;;;;;;;;;6.50;5.25;;;;;;;;5055990;27;45458;-63
2022/07/31 12:04:26;;;;;;;;;8.25;8.25;;;;;;;;5073921;28;45543;-62
2022/07/31 12:06:58;;;;;;;;;2.00;2.00;;;;;;;;5073951;28;46040;-62
2022/07/31 12:09:23;;;;;;;;;3.00;3.00;;;;;;;;5074091;28;45495;-62
2022/07/31 12:11:48;;;;;;;;;16.25;14.50;;;;;;;;5073908;28;46297;-62
2022/07/31 12:14:14;;;;;;;;;5.00;5.00;;;;;;;;5074038;28;45382;-62
2022/07/31 12:16:40;;;;;;;;;2.50;2.50;;;;;;;;5073604;27;45341;-61
2022/07/31 12:19:05;;;;;;;;;3.75;3.25;;;;;;;;5074125;28;45529;-63
2022/07/31 12:21:32;;;;;;;;;4.50;4.50;;;;;;;;5074136;28;45334;-61
2022/07/31 12:23:57;;;;;;;;;3.00;3.00;;;;;;;;5074060;28;45458;-61
2022/07/31 12:26:22;;;;;;;;;8.75;8.75;;;;;;;;5073332;28;46102;-63
2022/07/31 12:29:06;;;;;;;;;2.75;2.75;;;;;;;;5073705;28;45455;-63
2022/07/31 12:31:48;;;;;;;;;3.00;3.00;;;;;;;;5073732;28;45405;-61
2022/07/31 12:34:27;;;;;;;;;3.50;2.25;;;;;;;;5073802;28;45337;-63
2022/07/31 12:37:02;;;;;;;;;3.50;3.50;;;;;;;;5055251;28;46611;-62
2022/07/31 12:39:28;;;;;;;;;3.00;3.00;;;;;;;;5055275;28;45454;-62
2022/07/31 12:41:53;;;;;;;;;4.00;4.00;;;;;;;;5073642;28;45431;-62
2022/07/31 12:44:19;;;;;;;;;3.00;3.00;;;;;;;;5073552;28;45609;-61
2022/07/31 12:46:44;;;;;;;;;10.25;10.25;;;;;;;;5073450;28;46013;-62
2022/07/31 12:49:10;;;;;;;;;3.00;3.00;;;;;;;;5073573;28;45455;-62
2022/07/31 12:51:35;;;;;;;;;10.25;8.75;;;;;;;;5054138;28;45434;-61
2022/07/31 12:54:04;;;;;;;;;5.00;5.00;;;;;;;;5073726;28;45557;-62
2022/07/31 12:56:32;;;;;;;;;3.75;3.00;;;;;;;;5073474;28;46708;-62
2022/07/31 12:59:00;;;;;;;;;5.25;5.25;;;;;;;;5073307;28;45511;-62
2022/07/31 13:01:26;;;;;;;;;2.25;2.25;;;;;;;;5073322;28;45315;-62
2022/07/31 13:03:51;;;;;;;;;2.50;2.50;;;;;;;;5055227;28;45381;-62
2022/07/31 13:06:16;;;;;;;;;3.00;2.00;;;;;;;;5073198;28;45751;-63
2022/07/31 13:08:42;;;;;;;;;5.00;4.00;;;;;;;;5073281;28;45500;-62
2022/07/31 13:11:07;;;;;;;;;3.00;3.00;;;;;;;;5073620;28;45398;-63
2022/07/31 13:13:33;;;;;;;;;2.00;2.00;;;;;;;;5073489;28;45341;-63
2022/07/31 13:15:58;;;;;;;;;2.25;2.25;;;;;;;;5073157;28;46494;-62
2022/07/31 13:18:23;;;;;;;;;2.50;2.50;;;;;;;;5072996;27;45340;-62
2022/07/31 13:20:48;;;;;;;;;2.25;2.25;;;;;;;;5073195;28;45438;-62
2022/07/31 13:23:13;;;;;;;;;3.00;3.00;;;;;;;;5073391;28;45361;-62
2022/07/31 13:25:39;;;;;;;;;6.00;4.75;;;;;;;;5054947;27;47469;-61
2022/07/31 13:28:04;;;;;;;;;3.25;3.25;;;;;;;;5073188;28;45595;-61
2022/07/31 13:30:29;;;;;;;;;4.50;3.25;;;;;;;;5073279;28;45377;-62
2022/07/31 13:32:54;;;;;;;;;3.75;3.75;;;;;;;;5054851;28;45434;-62
2022/07/31 13:35:20;;;;;;;;;4.00;3.00;;;;;;;;5072943;28;45436;-62
2022/07/31 13:37:45;;;;;;;;;3.00;3.00;;;;;;;;5072680;28;45416;-62
2022/07/31 13:40:11;;;;;;;;;3.75;3.00;;;;;;;;5072871;28;45437;-63
2022/07/31 13:42:36;;;;;;;;;3.25;3.00;;;;;;;;5072817;28;45447;-62
2022/07/31 13:45:01;;;;;;;;;4.00;3.00;;;;;;;;5072797;28;46432;-63
2022/07/31 13:47:26;;;;;;;;;2.25;2.25;;;;;;;;5072704;28;45422;-63
2022/07/31 13:49:52;;;;;;;;;2.25;2.25;;;;;;;;5073037;28;45478;-62
2022/07/31 13:52:17;;;;;;;;;2.00;2.00;;;;;;;;5072524;28;45471;-62
2022/07/31 13:54:42;;;;;;;;;2.75;2.75;;;;;;;;5072748;28;46636;-62
2022/07/31 13:57:08;;;;;;;;;2.00;2.00;;;;;;;;5072693;28;45498;-62
2022/07/31 13:59:33;;;;;;;;;2.25;2.25;;;;;;;;5072818;28;45403;-62
2022/07/31 14:01:59;;;;;;;;;4.00;4.00;;;;;;;;5072088;28;45295;-62
2022/07/31 14:04:24;;;;;;;;;2.25;2.25;;;;;;;;5054277;28;47153;-62
2022/07/31 14:06:49;;;;;;;;;1.00;1.00;;;;;;;;5072456;28;45467;-62
2022/07/31 14:09:15;;;;;;;;;3.00;3.00;;;;;;;;5054441;28;45524;-62
2022/07/31 14:11:40;;;;;;;;;3.00;3.00;;;;;;;;5054256;28;45509;-61
2022/07/31 14:14:05;;;;;;;;;4.75;3.00;;;;;;;;5072387;28;46599;-61
2022/07/31 14:16:30;;;;;;;;;2.50;2.50;;;;;;;;5054141;28;45615;-61
2022/07/31 14:18:55;;;;;;;;;2.00;2.00;;;;;;;;5054038;28;45571;-62
2022/07/31 14:21:20;;;;;;;;;3.50;3.50;;;;;;;;5054146;28;45373;-61
2022/07/31 14:23:46;;;;;;;;;3.00;3.00;;;;;;;;5072422;28;45752;-62
2022/07/31 14:26:11;;;;;;;;;2.50;2.50;;;;;;;;5072383;28;45620;-61
2022/07/31 14:28:36;;;;;;;;;3.50;3.50;;;;;;;;5054243;27;45432;-62
2022/07/31 14:31:01;;;;;;;;;2.00;2.00;;;;;;;;5054323;27;45450;-62
2022/07/31 14:33:26;;;;;;;;;3.00;3.00;;;;;;;;5072161;28;46133;-62
2022/07/31 14:35:52;;;;;;;;;3.25;3.25;;;;;;;;5072256;28;45575;-62
2022/07/31 14:38:17;;;;;;;;;3.00;3.00;;;;;;;;5072386;28;45383;-62
2022/07/31 14:40:42;;;;;;;;;3.00;3.00;;;;;;;;5072336;28;45285;-62